createdAt,value
2022-10-22T00:01:04.819Z,98642.78
2022-10-22T00:03:32.406Z,98644.06
2022-10-22T00:06:00.406Z,98652.94
2022-10-22T00:08:28.140Z,98646.00
2022-10-22T00:10:55.391Z,98643.16
2022-10-22T00:13:23.115Z,98637.78
2022-10-22T00:15:50.313Z,98620.00
2022-10-22T00:18:17.521Z,98632.63
2022-10-22T00:20:44.740Z,98628.50
2022-10-22T00:23:11.962Z,98633.78
2022-10-22T00:25:39.437Z,98630.25
2022-10-22T00:28:06.781Z,98635.31
2022-10-22T00:30:33.919Z,98624.25
2022-10-22T00:33:01.073Z,98624.13
2022-10-22T00:35:28.237Z,98636.84
2022-10-22T00:37:55.736Z,98637.16
2022-10-22T00:40:23.285Z,98633.56
2022-10-22T00:42:50.578Z,98617.50
2022-10-22T00:45:25.914Z,98619.03
2022-10-22T00:48:02.695Z,98618.16
2022-10-22T00:50:33.813Z,98615.41
2022-10-22T00:53:03.486Z,98611.75
2022-10-22T00:55:33.411Z,98607.25
2022-10-22T00:58:02.509Z,98602.56
2022-10-22T01:00:30.298Z,98594.25
2022-10-22T01:02:58.710Z,98599.97
2022-10-22T01:05:40.372Z,98605.94
2022-10-22T01:08:27.117Z,98612.69
2022-10-22T01:11:22.335Z,98612.16
2022-10-22T01:14:21.909Z,98619.91
2022-10-22T01:20:11.921Z,98627.34
2022-10-22T01:23:30.664Z,98614.81
2022-10-22T01:29:11.100Z,98610.25
2022-10-22T01:31:56.989Z,98607.97
2022-10-22T01:34:26.434Z,98608.34
2022-10-22T01:36:56.924Z,98614.22
2022-10-22T01:39:28.522Z,98599.06
2022-10-22T01:41:57.428Z,98598.28
2022-10-22T01:47:57.177Z,98577.59
2022-10-22T01:51:11.922Z,98577.78
2022-10-22T01:53:51.354Z,98572.38
2022-10-22T01:56:56.766Z,98583.50
2022-10-22T01:59:57.990Z,98585.38
2022-10-22T02:03:18.671Z,98586.50
2022-10-22T02:05:59.855Z,98576.88
2022-10-22T02:08:33.791Z,98572.97
2022-10-22T02:11:02.205Z,98591.41
2022-10-22T02:13:47.450Z,98600.84
2022-10-22T02:16:28.376Z,98610.59
2022-10-22T02:19:02.902Z,98620.09
2022-10-22T02:21:31.354Z,98609.38
2022-10-22T02:23:59.029Z,98606.56
2022-10-22T02:27:12.854Z,98627.59
2022-10-22T02:29:51.650Z,98641.78
2022-10-22T02:32:27.663Z,98637.59
2022-10-22T02:34:57.085Z,98622.22
2022-10-22T02:37:27.379Z,98624.50
2022-10-22T02:39:56.449Z,98629.00
2022-10-22T02:42:26.606Z,98631.38
2022-10-22T02:44:53.834Z,98622.25
2022-10-22T02:47:21.046Z,98626.59
2022-10-22T02:49:48.408Z,98628.25
2022-10-22T02:52:15.865Z,98638.41
2022-10-22T02:54:43.639Z,98630.94
2022-10-22T02:57:10.978Z,98625.00
2022-10-22T02:59:38.158Z,98621.94
2022-10-22T03:02:31.058Z,98635.63
2022-10-22T03:04:58.512Z,98625.84
2022-10-22T03:07:25.995Z,98637.28
2022-10-22T03:09:53.238Z,98636.84
2022-10-22T03:12:20.531Z,98629.50
2022-10-22T03:14:47.673Z,98634.25
2022-10-22T03:17:14.940Z,98630.69
2022-10-22T03:19:42.183Z,98618.97
2022-10-22T03:22:26.835Z,98620.69
2022-10-22T03:25:01.093Z,98609.31
2022-10-22T03:27:30.399Z,98600.41
2022-10-22T03:29:59.817Z,98609.56
2022-10-22T03:32:27.043Z,98598.47
2022-10-22T03:34:54.217Z,98598.25
2022-10-22T03:37:22.570Z,98590.13
2022-10-22T03:39:50.424Z,98585.72
2022-10-22T03:42:18.155Z,98578.50
2022-10-22T03:44:45.594Z,98585.84
2022-10-22T03:47:12.830Z,98578.13
2022-10-22T03:49:40.079Z,98594.94
2022-10-22T03:52:12.173Z,98600.53
2022-10-22T03:54:42.091Z,98607.06
2022-10-22T03:57:10.931Z,98608.69
2022-10-22T03:59:42.973Z,98610.03
2022-10-22T04:02:13.369Z,98605.69
2022-10-22T04:04:40.656Z,98613.03
2022-10-22T04:07:09.003Z,98600.88
2022-10-22T04:09:39.236Z,98593.75
2022-10-22T04:12:07.971Z,98596.66
2022-10-22T04:14:35.600Z,98609.38
2022-10-22T04:17:03.129Z,98597.31
2022-10-22T04:19:30.248Z,98593.28
2022-10-22T04:22:01.461Z,98607.22
2022-10-22T04:24:31.377Z,98615.09
2022-10-22T04:26:59.368Z,98616.88
2022-10-22T04:29:26.989Z,98635.03
2022-10-22T04:31:54.104Z,98628.03
2022-10-22T04:34:21.244Z,98625.19
2022-10-22T04:36:55.446Z,98634.19
2022-10-22T04:39:23.025Z,98628.56
2022-10-22T04:41:50.381Z,98611.38
2022-10-22T04:44:18.255Z,98613.59
2022-10-22T04:46:46.031Z,98615.28
2022-10-22T04:49:13.593Z,98617.44
2022-10-22T04:51:41.023Z,98623.88
2022-10-22T04:54:11.756Z,98628.09
2022-10-22T04:56:39.341Z,98624.13
2022-10-22T04:59:12.658Z,98630.25
2022-10-22T05:01:44.397Z,98632.16
2022-10-22T05:04:16.808Z,98631.09
2022-10-22T05:06:45.432Z,98636.78
2022-10-22T05:09:20.565Z,98642.09
2022-10-22T05:11:52.535Z,98651.56
2022-10-22T05:14:25.286Z,98647.69
2022-10-22T05:16:53.173Z,98658.94
2022-10-22T05:19:31.172Z,98651.91
2022-10-22T05:22:04.281Z,98644.72
2022-10-22T05:24:36.680Z,98645.22
2022-10-22T05:27:04.358Z,98650.88
2022-10-22T05:29:31.655Z,98661.38
2022-10-22T05:31:58.802Z,98666.41
2022-10-22T05:34:25.970Z,98668.94
2022-10-22T05:36:54.447Z,98679.53
2022-10-22T05:39:22.096Z,98680.66
2022-10-22T05:41:49.419Z,98694.94
2022-10-22T05:44:16.541Z,98698.03
2022-10-22T05:46:43.657Z,98703.91
2022-10-22T05:49:16.109Z,98707.53
2022-10-22T05:51:43.599Z,98720.41
2022-10-22T05:54:20.586Z,98731.00
2022-10-22T05:56:48.676Z,98734.09
2022-10-22T05:59:16.801Z,98742.78
2022-10-22T06:01:44.047Z,98745.25
2022-10-22T06:04:13.705Z,98754.09
2022-10-22T06:06:47.735Z,98754.38
2022-10-22T06:12:10.850Z,98752.47
2022-10-22T06:14:38.130Z,98750.44
2022-10-22T06:17:05.273Z,98748.31
2022-10-22T06:19:32.621Z,98763.66
2022-10-22T06:21:59.765Z,98763.94
2022-10-22T06:24:26.888Z,98779.59
2022-10-22T06:26:54.084Z,98773.44
2022-10-22T06:29:21.913Z,98771.78
2022-10-22T06:31:49.293Z,98782.38
2022-10-22T06:34:20.603Z,98795.31
2022-10-22T06:36:54.495Z,98801.47
2022-10-22T06:39:21.993Z,98804.50
2022-10-22T06:41:49.516Z,98804.22
2022-10-22T06:44:20.375Z,98801.97
2022-10-22T06:46:54.699Z,98809.94
2022-10-22T06:49:22.146Z,98811.38
2022-10-22T06:51:55.780Z,98812.81
2022-10-22T06:54:29.816Z,98809.53
2022-10-22T06:56:57.127Z,98811.16
2022-10-22T06:59:24.673Z,98820.09
2022-10-22T07:01:51.915Z,98825.97
2022-10-22T07:04:19.151Z,98821.66
2022-10-22T07:06:46.503Z,98828.06
2022-10-22T07:09:14.313Z,98830.28
2022-10-22T07:11:45.615Z,98831.38
2022-10-22T07:14:14.316Z,98837.53
2022-10-22T07:16:45.768Z,98838.03
2022-10-22T07:19:13.782Z,98850.25
2022-10-22T07:21:41.188Z,98854.97
2022-10-22T07:24:14.699Z,98850.47
2022-10-22T07:26:42.536Z,98855.25
2022-10-22T07:29:10.102Z,98849.78
2022-10-22T07:31:37.237Z,98856.22
2022-10-22T07:34:04.391Z,98865.22
2022-10-22T07:36:31.584Z,98868.06
2022-10-22T07:39:00.822Z,98862.47
2022-10-22T07:41:30.602Z,98859.09
2022-10-22T07:43:59.447Z,98860.41
2022-10-22T07:46:27.642Z,98859.94
2022-10-22T07:48:55.124Z,98864.09
2022-10-22T07:51:22.802Z,98860.75
2022-10-22T07:53:50.000Z,98867.06
2022-10-22T07:56:17.732Z,98875.06
2022-10-22T07:58:44.999Z,98875.91
2022-10-22T08:01:12.344Z,98884.34
2022-10-22T08:03:39.789Z,98886.75
2022-10-22T08:06:08.825Z,98889.72
2022-10-22T08:08:36.088Z,98902.59
2022-10-22T08:11:03.310Z,98903.97
2022-10-22T08:13:31.407Z,98890.94
2022-10-22T08:16:01.864Z,98899.59
2022-10-22T08:18:30.081Z,98899.28
2022-10-22T08:20:58.310Z,98899.41
2022-10-22T08:23:27.437Z,98907.94
2022-10-22T08:25:57.655Z,98904.34
2022-10-22T08:28:25.996Z,98901.13
2022-10-22T08:30:53.812Z,98903.00
2022-10-22T08:33:21.804Z,98903.31
2022-10-22T08:35:51.464Z,98908.63
2022-10-22T08:41:21.005Z,98912.72
2022-10-22T08:44:09.044Z,98913.78
2022-10-22T08:48:02.003Z,98916.41
2022-10-22T08:50:46.358Z,98907.63
2022-10-22T08:53:54.155Z,98909.25
2022-10-22T08:56:24.429Z,98913.41
2022-10-22T08:59:32.819Z,98919.13
2022-10-22T09:02:02.558Z,98920.97
2022-10-22T09:04:52.991Z,98924.81
2022-10-22T09:07:20.592Z,98920.91
2022-10-22T09:09:57.903Z,98919.25
2022-10-22T09:12:28.283Z,98924.78
2022-10-22T09:14:55.592Z,98925.00
2022-10-22T09:18:16.347Z,98926.09
2022-10-22T09:21:11.174Z,98941.56
2022-10-22T09:23:56.494Z,98937.63
2022-10-22T09:26:27.335Z,98937.94
2022-10-22T09:29:00.287Z,98936.91
2022-10-22T09:31:31.575Z,98938.44
2022-10-22T09:34:05.986Z,98942.34
2022-10-22T09:36:35.372Z,98937.50
2022-10-22T09:39:04.138Z,98939.63
2022-10-22T09:41:31.444Z,98938.28
2022-10-22T09:43:59.601Z,98937.78
2022-10-22T09:46:45.424Z,98933.97
2022-10-22T09:49:36.401Z,98935.66
2022-10-22T09:52:28.925Z,98942.13
2022-10-22T09:54:57.310Z,98935.03
2022-10-22T09:57:26.473Z,98950.78
2022-10-22T09:59:57.452Z,98951.34
2022-10-22T10:02:44.000Z,98952.91
2022-10-22T10:05:29.328Z,98954.63
2022-10-22T10:07:58.267Z,98948.44
2022-10-22T10:10:58.835Z,98951.69
2022-10-22T10:13:48.046Z,98948.72
2022-10-22T10:16:37.722Z,98950.81
2022-10-22T10:19:38.429Z,98946.72
2022-10-22T10:22:23.500Z,98950.38
2022-10-22T10:25:19.433Z,98952.78
2022-10-22T10:28:09.230Z,98954.66
2022-10-22T10:31:02.980Z,98942.59
2022-10-22T10:33:43.061Z,98960.75
2022-10-22T10:37:01.112Z,98955.31
2022-10-22T10:40:03.648Z,98952.13
2022-10-22T10:43:02.882Z,98948.97
2022-10-22T10:46:00.338Z,98948.31
2022-10-22T10:48:59.544Z,98951.31
2022-10-22T10:51:46.375Z,98956.66
2022-10-22T10:54:50.746Z,98961.69
2022-10-22T10:57:59.871Z,98964.34
2022-10-22T11:00:39.584Z,98957.72
2022-10-22T11:03:58.626Z,98950.09
2022-10-22T11:06:30.661Z,98939.88
2022-10-22T11:09:08.744Z,98948.56
2022-10-22T11:11:41.486Z,98945.09
2022-10-22T11:14:40.346Z,98948.13
2022-10-22T11:17:18.873Z,98949.84
2022-10-22T11:20:16.340Z,98949.84
2022-10-22T11:23:25.109Z,98932.59
2022-10-22T11:25:52.753Z,98940.06
2022-10-22T11:28:47.885Z,98942.34
2022-10-22T11:31:18.550Z,98935.56
2022-10-22T11:34:28.646Z,98939.25
2022-10-22T11:36:56.729Z,98927.34
2022-10-22T11:39:51.922Z,98920.56
2022-10-22T11:42:30.177Z,98918.56
2022-10-22T11:45:29.048Z,98915.09
2022-10-22T11:48:10.797Z,98915.84
2022-10-22T11:50:47.200Z,98912.47
2022-10-22T11:53:27.788Z,98913.41
2022-10-22T11:56:13.251Z,98915.22
2022-10-22T11:58:44.659Z,98907.81
2022-10-22T12:01:11.812Z,98911.75
2022-10-22T12:03:58.187Z,98905.78
2022-10-22T12:06:28.592Z,98903.72
2022-10-22T12:09:06.963Z,98909.56
2022-10-22T12:11:39.893Z,98902.28
2022-10-22T12:14:29.817Z,98910.63
2022-10-22T12:17:07.495Z,98901.78
2022-10-22T12:19:44.884Z,98912.16
2022-10-22T12:22:37.077Z,98906.50
2022-10-22T12:25:35.454Z,98895.69
2022-10-22T12:28:05.428Z,98902.91
2022-10-22T12:30:36.672Z,98884.56
2022-10-22T12:33:22.278Z,98891.38
2022-10-22T12:35:53.989Z,98886.63
2022-10-22T12:38:27.633Z,98880.59
2022-10-22T12:40:57.233Z,98880.94
2022-10-22T12:43:29.941Z,98872.78
2022-10-22T12:45:59.536Z,98871.88
2022-10-22T12:48:38.896Z,98871.00
2022-10-22T12:51:09.529Z,98875.13
2022-10-22T12:53:44.358Z,98871.94
2022-10-22T12:56:34.995Z,98870.78
2022-10-22T12:59:22.755Z,98866.47
2022-10-22T13:01:52.320Z,98873.47
2022-10-22T13:04:28.456Z,98866.63
2022-10-22T13:07:18.476Z,98866.56
2022-10-22T13:10:00.253Z,98862.78
2022-10-22T13:12:36.398Z,98866.06
2022-10-22T13:15:31.472Z,98865.06
2022-10-22T13:18:16.747Z,98877.38
2022-10-22T13:21:03.252Z,98868.75
2022-10-22T13:23:34.072Z,98866.66
2022-10-22T13:26:04.226Z,98868.53
2022-10-22T13:28:32.825Z,98875.19
2022-10-22T13:31:17.884Z,98863.03
2022-10-22T13:33:53.033Z,98861.78
2022-10-22T13:36:20.442Z,98864.56
2022-10-22T13:38:47.745Z,98866.88
2022-10-22T13:41:32.170Z,98857.81
2022-10-22T13:43:59.758Z,98853.69
2022-10-22T13:46:27.627Z,98848.47
2022-10-22T13:48:56.864Z,98862.91
2022-10-22T13:51:34.838Z,98851.69
2022-10-22T13:54:09.480Z,98852.78
2022-10-22T13:56:36.707Z,98856.38
2022-10-22T13:59:03.881Z,98855.22
2022-10-22T14:01:31.219Z,98861.47
2022-10-22T14:04:01.983Z,98853.25
2022-10-22T14:06:32.795Z,98849.91
2022-10-22T14:09:08.813Z,98854.41
2022-10-22T14:11:36.252Z,98854.63
2022-10-22T14:14:04.937Z,98849.41
2022-10-22T14:16:33.195Z,98860.34
2022-10-22T14:19:02.193Z,98856.56
2022-10-22T14:21:37.987Z,98854.81
2022-10-22T14:24:08.192Z,98849.28
2022-10-22T14:26:38.077Z,98852.19
2022-10-22T14:29:09.683Z,98848.75
2022-10-22T14:31:44.152Z,98840.72
2022-10-22T14:34:15.837Z,98847.34
2022-10-22T14:36:44.245Z,98851.59
2022-10-22T14:39:13.691Z,98849.03
2022-10-22T14:41:42.438Z,98856.38
2022-10-22T14:44:14.044Z,98851.47
2022-10-22T14:46:43.849Z,98855.34
2022-10-22T14:49:11.050Z,98846.53
2022-10-22T14:51:38.344Z,98849.75
2022-10-22T14:54:05.825Z,98862.19
2022-10-22T14:56:33.758Z,98862.84
2022-10-22T14:59:01.093Z,98873.84
2022-10-22T15:01:28.597Z,98859.44
2022-10-22T15:03:55.824Z,98867.00
2022-10-22T15:06:23.144Z,98864.00
2022-10-22T15:08:50.828Z,98869.59
2022-10-22T15:11:18.149Z,98866.03
2022-10-22T15:13:45.311Z,98872.94
2022-10-22T15:16:16.359Z,98867.66
2022-10-22T15:18:43.719Z,98877.28
2022-10-22T15:21:19.327Z,98877.19
2022-10-22T15:23:47.213Z,98872.59
2022-10-22T15:26:15.855Z,98886.16
2022-10-22T15:28:43.480Z,98886.69
2022-10-22T15:31:15.177Z,98884.16
2022-10-22T15:33:44.229Z,98875.16
2022-10-22T15:36:16.333Z,98871.50
2022-10-22T15:38:43.826Z,98875.81
2022-10-22T15:41:13.465Z,98877.00
2022-10-22T15:43:40.844Z,98866.81
2022-10-22T15:46:19.950Z,98864.41
2022-10-22T15:48:47.100Z,98867.06
2022-10-22T15:51:19.711Z,98870.50
2022-10-22T15:53:59.564Z,98879.31
2022-10-22T15:56:29.980Z,98875.69
2022-10-22T15:59:04.024Z,98870.22
2022-10-22T16:01:35.331Z,98880.22
2022-10-22T16:04:04.358Z,98883.91
2022-10-22T16:06:39.898Z,98873.16
2022-10-22T16:09:15.808Z,98879.78
2022-10-22T16:11:44.805Z,98874.28
2022-10-22T16:14:15.922Z,98882.16
2022-10-22T16:16:48.752Z,98887.31
2022-10-22T16:19:23.056Z,98883.13
2022-10-22T16:21:54.998Z,98889.75
2022-10-22T16:24:23.411Z,98885.16
2022-10-22T16:26:52.682Z,98887.06
2022-10-22T16:29:20.296Z,98881.03
2022-10-22T16:31:48.030Z,98880.19
2022-10-22T16:34:15.314Z,98887.44
2022-10-22T16:36:44.303Z,98882.72
2022-10-22T16:39:14.229Z,98887.47
2022-10-22T16:41:41.443Z,98891.09
2022-10-22T16:44:10.045Z,98896.59
2022-10-22T16:46:38.575Z,98898.28
2022-10-22T16:49:07.478Z,98900.03
2022-10-22T16:51:36.075Z,98911.66
2022-10-22T16:54:05.667Z,98915.59
2022-10-22T16:56:37.902Z,98916.84
2022-10-22T16:59:06.336Z,98924.09
2022-10-22T17:01:37.953Z,98913.69
2022-10-22T17:04:08.631Z,98925.47
2022-10-22T17:06:36.118Z,98923.00
2022-10-22T17:09:05.115Z,98916.59
2022-10-22T17:11:36.262Z,98922.31
2022-10-22T17:14:06.389Z,98922.00
2022-10-22T17:16:33.691Z,98919.81
2022-10-22T17:19:04.432Z,98920.63
2022-10-22T17:21:31.836Z,98927.38
2022-10-22T17:23:59.143Z,98925.94
2022-10-22T17:26:27.077Z,98920.38
2022-10-22T17:28:57.873Z,98927.16
2022-10-22T17:31:37.800Z,98924.63
2022-10-22T17:34:10.425Z,98937.00
2022-10-22T17:36:37.926Z,98939.31
2022-10-22T17:39:08.222Z,98939.69
2022-10-22T17:41:37.595Z,98944.66
2022-10-22T17:44:09.197Z,98945.41
2022-10-22T17:46:38.125Z,98947.25
2022-10-22T17:49:17.236Z,98948.44
2022-10-22T17:51:45.232Z,98951.19
2022-10-22T17:54:14.035Z,98961.88
2022-10-22T17:56:42.115Z,98965.19
2022-10-22T17:59:16.036Z,98956.19
2022-10-22T18:01:45.786Z,98958.47
2022-10-22T18:04:20.072Z,98963.28
2022-10-22T18:06:48.567Z,98971.38
2022-10-22T18:09:19.282Z,98963.00
2022-10-22T18:11:50.821Z,98969.97
2022-10-22T18:14:21.618Z,98972.81
2022-10-22T18:16:50.942Z,98972.81
2022-10-22T18:19:24.453Z,98964.13
2022-10-22T18:21:52.080Z,98968.00
2022-10-22T18:24:19.393Z,98970.50
2022-10-22T18:26:46.635Z,98978.28
2022-10-22T18:29:20.657Z,98975.53
2022-10-22T18:31:49.081Z,98966.84
2022-10-22T18:34:20.228Z,98961.25
2022-10-22T18:37:02.204Z,98957.06
2022-10-22T18:39:30.384Z,98959.88
2022-10-22T18:41:57.715Z,98963.19
2022-10-22T18:44:24.926Z,98955.63
2022-10-22T18:46:55.519Z,98963.97
2022-10-22T18:49:23.381Z,98952.53
2022-10-22T18:51:52.902Z,98960.81
2022-10-22T18:54:23.832Z,98963.06
2022-10-22T18:57:00.486Z,98963.81
2022-10-22T18:59:28.711Z,98959.84
2022-10-22T19:02:00.355Z,98960.84
2022-10-22T19:04:33.573Z,98958.13
2022-10-22T19:07:01.251Z,98958.59
2022-10-22T19:09:29.028Z,98959.13
2022-10-22T19:11:56.450Z,98951.09
2022-10-22T19:14:23.719Z,98965.53
2022-10-22T19:16:51.018Z,98962.41
2022-10-22T19:19:22.361Z,98961.88
2022-10-22T19:21:50.660Z,98958.59
2022-10-22T19:24:20.522Z,98957.00
2022-10-22T19:26:49.811Z,98961.97
2022-10-22T19:29:20.690Z,98979.88
2022-10-22T19:31:50.985Z,98965.25
2022-10-22T19:34:22.176Z,98975.28
2022-10-22T19:36:54.691Z,98973.00
2022-10-22T19:39:22.272Z,98973.69
2022-10-22T19:41:50.118Z,98970.03
2022-10-22T19:44:17.693Z,98967.84
2022-10-22T19:46:46.091Z,98964.63
2022-10-22T19:49:18.925Z,98954.97
2022-10-22T19:51:49.321Z,98961.59
2022-10-22T19:54:18.722Z,98961.69
2022-10-22T19:56:47.776Z,98958.06
2022-10-22T19:59:22.524Z,98948.16
2022-10-22T20:01:50.340Z,98954.00
2022-10-22T20:04:18.835Z,98956.19
2022-10-22T20:06:47.021Z,98960.72
2022-10-22T20:09:14.542Z,98955.09
2022-10-22T20:11:41.853Z,98961.72
2022-10-22T20:14:09.060Z,98967.16
2022-10-22T20:16:36.382Z,98962.56
2022-10-22T20:19:07.713Z,98964.63
2022-10-22T20:21:35.338Z,98972.72
2022-10-22T20:24:03.087Z,98972.69
2022-10-22T20:26:31.664Z,98980.94
2022-10-22T20:28:59.704Z,98976.00
2022-10-22T20:31:32.781Z,98975.72
2022-10-22T20:34:01.696Z,98975.38
2022-10-22T20:36:31.093Z,98974.00
2022-10-22T20:39:09.177Z,98974.84
2022-10-22T20:41:40.321Z,98973.88
2022-10-22T20:44:15.271Z,98987.41
2022-10-22T20:46:43.921Z,98976.56
2022-10-22T20:49:16.889Z,98977.25
2022-10-22T20:51:44.784Z,98985.47
2022-10-22T20:54:15.106Z,98978.31
2022-10-22T20:56:43.552Z,98982.63
2022-10-22T20:59:15.364Z,98976.63
2022-10-22T21:01:52.802Z,98976.31
2022-10-22T21:04:22.921Z,98967.97
2022-10-22T21:06:53.308Z,98972.69
2022-10-22T21:09:27.537Z,98968.63
2022-10-22T21:12:04.400Z,98967.97
2022-10-22T21:14:38.102Z,98967.56
2022-10-22T21:17:10.174Z,98964.22
2022-10-22T21:19:39.938Z,98959.63
2022-10-22T21:22:12.574Z,98963.97
2022-10-22T21:24:42.968Z,98955.44
2022-10-22T21:27:12.577Z,98959.53
2022-10-22T21:29:42.857Z,98952.50
2022-10-22T21:32:15.321Z,98952.66
2022-10-22T21:34:45.263Z,98950.81
2022-10-22T21:37:13.580Z,98961.00
2022-10-22T21:39:42.910Z,98970.69
2022-10-22T21:42:17.226Z,98973.03
2022-10-22T21:44:46.853Z,98973.06
2022-10-22T21:47:17.021Z,98964.63
2022-10-22T21:49:45.174Z,98972.59
2022-10-22T21:52:13.486Z,98972.13
2022-10-22T21:54:42.765Z,98967.94
2022-10-22T21:57:13.398Z,98972.84
2022-10-22T21:59:41.385Z,98972.16
2022-10-22T22:02:12.208Z,98967.13
2022-10-22T22:05:18.208Z,98962.88
2022-10-22T22:07:46.036Z,98976.41
2022-10-22T22:10:14.885Z,98971.53
2022-10-22T22:12:44.489Z,98965.41
2022-10-22T22:15:13.106Z,98967.88
2022-10-22T22:17:40.866Z,98967.94
2022-10-22T22:20:10.689Z,98957.19
2022-10-22T22:22:39.865Z,98967.00
2022-10-22T22:25:11.695Z,98960.25
2022-10-22T22:27:39.613Z,98965.94
2022-10-22T22:30:08.879Z,98957.47
2022-10-22T22:32:36.836Z,98958.38
2022-10-22T22:35:06.593Z,98959.00
2022-10-22T22:37:34.817Z,98964.16
2022-10-22T22:40:09.193Z,98960.66
2022-10-22T22:42:37.101Z,98954.44
2022-10-22T22:45:05.403Z,98966.75
2022-10-22T22:47:32.816Z,98959.69
2022-10-22T22:50:00.716Z,98960.94
2022-10-22T22:52:30.725Z,98963.06
2022-10-22T22:54:58.488Z,98954.59
2022-10-22T22:57:25.954Z,98949.16
2022-10-22T22:59:53.705Z,98954.25
2022-10-22T23:02:21.367Z,98952.63
2022-10-22T23:04:48.818Z,98946.97
2022-10-22T23:07:16.264Z,98946.19
2022-10-22T23:09:44.490Z,98940.94
2022-10-22T23:12:11.869Z,98935.66
2022-10-22T23:14:39.557Z,98936.16
2022-10-22T23:17:07.095Z,98939.53
2022-10-22T23:19:34.902Z,98931.53
2022-10-22T23:22:02.638Z,98937.34
2022-10-22T23:24:31.026Z,98931.31
2022-10-22T23:27:04.254Z,98923.47
2022-10-22T23:29:35.900Z,98911.97
2022-10-22T23:32:08.714Z,98912.09
2022-10-22T23:34:36.277Z,98917.03
2022-10-22T23:37:04.342Z,98910.41
2022-10-22T23:39:31.734Z,98916.31
2022-10-22T23:41:59.425Z,98922.50
2022-10-22T23:44:27.676Z,98907.16
2022-10-22T23:46:55.404Z,98913.78
2022-10-22T23:49:22.950Z,98921.03
2022-10-22T23:51:50.445Z,98918.06
2022-10-22T23:54:18.700Z,98922.25
2022-10-22T23:56:47.100Z,98917.81
2022-10-22T23:59:15.409Z,98911.81
